createdAt,value
2023-07-14T06:02:48.280Z,21.24
2023-07-14T06:05:16.011Z,21.02
2023-07-14T06:07:43.485Z,21.38
2023-07-14T06:10:12.113Z,21.72
2023-07-14T06:12:39.306Z,21.73
2023-07-14T06:15:07.032Z,21.76
2023-07-14T06:17:33.689Z,21.91
2023-07-14T06:20:00.449Z,21.80
2023-07-14T06:22:27.171Z,21.43
2023-07-14T06:24:53.933Z,21.54
2023-07-14T06:27:24.173Z,21.79
2023-07-14T06:29:51.011Z,21.42
2023-07-14T06:32:17.758Z,22.04
2023-07-14T06:34:45.005Z,22.01
2023-07-14T06:37:11.659Z,22.38
2023-07-14T06:39:38.906Z,21.87
2023-07-14T06:42:06.382Z,22.09
2023-07-14T06:44:33.084Z,21.58
2023-07-14T06:46:59.794Z,22.20
2023-07-14T06:49:28.860Z,22.60
2023-07-14T06:51:56.574Z,22.29
2023-07-14T06:54:23.328Z,22.77
2023-07-14T06:56:50.093Z,23.02
2023-07-14T06:59:16.821Z,23.21
2023-07-14T07:01:43.524Z,23.27
2023-07-14T07:04:10.193Z,22.78
2023-07-14T07:06:37.029Z,23.04
2023-07-14T07:09:05.232Z,23.16
2023-07-14T07:11:34.159Z,23.31
2023-07-14T07:14:01.263Z,23.49
2023-07-14T07:16:27.963Z,23.53
2023-07-14T07:18:54.831Z,23.39
2023-07-14T07:21:21.519Z,23.30
2023-07-14T07:23:48.257Z,23.09
2023-07-14T07:26:15.804Z,23.58
2023-07-14T07:28:42.649Z,23.68
2023-07-14T07:31:12.292Z,23.69
2023-07-14T07:36:16.350Z,23.40
2023-07-14T07:38:46.326Z,23.61
2023-07-14T07:41:15.511Z,23.18
2023-07-14T07:43:42.948Z,23.77
2023-07-14T07:46:10.364Z,23.73
2023-07-14T07:48:37.508Z,22.85
2023-07-14T07:51:06.044Z,23.75
2023-07-14T07:53:33.864Z,23.56
2023-07-14T07:56:02.271Z,23.55
2023-07-14T07:58:30.000Z,23.51
2023-07-14T08:00:59.790Z,23.49
2023-07-14T08:03:27.532Z,23.85
2023-07-14T08:06:03.637Z,24.00
2023-07-14T08:08:30.950Z,24.24
2023-07-14T08:10:58.622Z,24.25
2023-07-14T08:13:30.245Z,24.31
2023-07-14T08:15:58.956Z,24.60
2023-07-14T08:18:27.168Z,24.36
2023-07-14T08:20:54.566Z,24.72
2023-07-14T08:23:23.328Z,24.83
2023-07-14T08:25:58.261Z,24.81
2023-07-14T08:28:28.252Z,24.91
2023-07-14T08:30:58.914Z,25.19
2023-07-14T08:33:26.413Z,25.09
2023-07-14T08:35:54.635Z,25.02
2023-07-14T08:38:22.856Z,25.03
2023-07-14T08:40:55.415Z,24.93
2023-07-14T08:43:28.559Z,25.06
2023-07-14T08:46:12.520Z,25.16
2023-07-14T08:48:47.109Z,25.44
2023-07-14T08:51:29.375Z,25.38
2023-07-14T08:54:03.859Z,25.56
2023-07-14T08:56:34.986Z,25.59
2023-07-14T08:59:02.585Z,25.21
2023-07-14T09:01:51.930Z,25.43
2023-07-14T09:04:25.624Z,25.50
2023-07-14T09:06:52.763Z,25.86
2023-07-14T09:09:34.707Z,25.39
2023-07-14T09:12:04.550Z,25.16
2023-07-14T09:15:00.828Z,25.72
2023-07-14T09:17:33.518Z,25.85
2023-07-14T09:20:46.121Z,25.73
2023-07-14T09:23:43.734Z,25.58
2023-07-14T09:26:20.726Z,25.77
2023-07-14T09:28:52.076Z,25.90
2023-07-14T09:31:57.576Z,25.23
2023-07-14T09:34:36.843Z,25.68
2023-07-14T09:37:16.938Z,25.92
2023-07-14T09:39:46.424Z,25.99
2023-07-14T09:42:27.370Z,25.91
2023-07-14T09:45:10.322Z,25.45
2023-07-14T09:47:37.668Z,25.19
2023-07-14T09:50:05.564Z,25.05
2023-07-14T09:52:32.238Z,24.63
2023-07-14T09:55:00.757Z,25.05
2023-07-14T09:57:39.645Z,25.29
2023-07-14T10:00:25.805Z,25.37
2023-07-14T10:03:04.133Z,25.41
2023-07-14T10:06:18.885Z,24.99
2023-07-14T10:08:56.757Z,24.50
2023-07-14T10:11:47.942Z,24.40
2023-07-14T10:14:36.384Z,24.15
2023-07-14T10:17:05.721Z,24.03
2023-07-14T10:19:40.255Z,23.78
2023-07-14T10:22:10.222Z,23.83
2023-07-14T10:24:38.748Z,23.73
2023-07-14T10:27:32.287Z,23.42
2023-07-14T10:29:58.941Z,23.56
2023-07-14T10:32:42.306Z,23.73
2023-07-14T10:35:18.270Z,23.60
2023-07-14T10:37:53.114Z,23.48
2023-07-14T10:40:24.171Z,23.47
2023-07-14T10:43:05.504Z,23.43
2023-07-14T10:45:35.429Z,23.43
2023-07-14T10:48:07.776Z,23.35
2023-07-14T10:50:42.697Z,23.28
2023-07-14T10:53:18.630Z,23.24
2023-07-14T10:55:47.272Z,23.24
2023-07-14T10:58:29.294Z,23.22
2023-07-14T11:01:02.524Z,23.58
2023-07-14T11:03:35.570Z,23.80
2023-07-14T11:06:31.685Z,23.53
2023-07-14T11:08:59.078Z,23.64
2023-07-14T11:11:54.350Z,23.08
2023-07-14T11:14:27.147Z,23.29
2023-07-14T11:17:03.718Z,23.22
2023-07-14T11:19:52.167Z,23.32
2023-07-14T11:22:43.307Z,23.36
2023-07-14T11:25:24.455Z,23.04
2023-07-14T11:27:58.315Z,23.07
2023-07-14T11:30:30.608Z,23.20
2023-07-14T11:33:06.245Z,23.30
2023-07-14T11:35:51.965Z,23.30
2023-07-14T11:38:40.170Z,23.08
2023-07-14T11:41:07.124Z,23.26
2023-07-14T11:43:34.822Z,23.07
2023-07-14T11:46:07.709Z,22.95
2023-07-14T11:48:41.366Z,22.80
2023-07-14T11:51:11.869Z,22.63
2023-07-14T11:53:41.880Z,22.37
2023-07-14T11:56:27.992Z,22.56
2023-07-14T11:59:13.662Z,22.56
2023-07-14T12:01:52.144Z,22.55
2023-07-14T12:04:57.877Z,22.67
2023-07-14T12:07:25.425Z,22.61
2023-07-14T12:10:01.010Z,22.70
2023-07-14T12:12:28.908Z,23.02
2023-07-14T12:14:55.578Z,22.96
2023-07-14T12:17:37.614Z,22.88
2023-07-14T12:20:17.726Z,23.02
2023-07-14T12:22:54.267Z,22.98
2023-07-14T12:25:25.474Z,23.02
2023-07-14T12:27:55.569Z,22.98
2023-07-14T12:30:24.575Z,23.33
2023-07-14T12:32:57.055Z,23.56
2023-07-14T12:35:27.853Z,23.48
2023-07-14T12:37:54.574Z,23.69
2023-07-14T12:40:25.377Z,23.79
2023-07-14T12:42:53.708Z,23.79
2023-07-14T12:45:21.854Z,23.63
2023-07-14T12:47:53.567Z,23.79
2023-07-14T12:50:26.084Z,23.64
2023-07-14T12:52:52.910Z,23.26
2023-07-14T12:55:25.423Z,23.19
2023-07-14T12:57:52.541Z,22.93
2023-07-14T13:00:26.900Z,22.90
2023-07-14T13:02:55.567Z,22.98
2023-07-14T13:05:27.348Z,22.77
2023-07-14T13:07:56.005Z,22.71
2023-07-14T13:10:28.017Z,22.90
2023-07-14T13:12:56.561Z,22.71
2023-07-14T13:15:28.837Z,22.72
2023-07-14T13:17:58.771Z,22.85
2023-07-14T13:20:37.510Z,22.89
2023-07-14T13:23:21.295Z,22.98
2023-07-14T13:26:06.276Z,22.91
2023-07-14T13:28:56.605Z,22.82
2023-07-14T13:31:33.840Z,22.71
2023-07-14T13:34:09.447Z,22.73
2023-07-14T13:36:36.901Z,22.60
2023-07-14T13:39:07.390Z,22.69
2023-07-14T13:41:34.320Z,22.75
2023-07-14T13:44:29.134Z,22.80
2023-07-14T13:46:56.417Z,23.09
2023-07-14T13:49:23.214Z,23.14
2023-07-14T13:51:50.032Z,23.28
2023-07-14T13:54:19.065Z,23.47
2023-07-14T13:56:47.767Z,23.53
2023-07-14T13:59:17.162Z,23.69
2023-07-14T14:01:44.556Z,23.73
2023-07-14T14:04:16.252Z,23.68
2023-07-14T14:06:45.293Z,23.84
2023-07-14T14:09:20.950Z,23.86
2023-07-14T14:11:51.975Z,24.00
2023-07-14T14:14:21.384Z,24.07
2023-07-14T14:16:50.138Z,24.49
2023-07-14T14:19:24.343Z,24.63
2023-07-14T14:22:00.474Z,24.54
2023-07-14T14:24:27.382Z,24.32
2023-07-14T14:26:55.227Z,24.40
2023-07-14T14:29:23.508Z,24.48
2023-07-14T14:31:50.203Z,24.29
2023-07-14T14:34:17.816Z,24.39
2023-07-14T14:36:44.523Z,24.43
2023-07-14T14:39:18.261Z,24.35
2023-07-14T14:41:46.485Z,24.00
2023-07-14T14:44:22.317Z,23.95
2023-07-14T14:46:49.390Z,23.93
2023-07-14T14:49:16.998Z,23.89
2023-07-14T14:51:44.360Z,23.90
2023-07-14T14:54:11.376Z,24.07
2023-07-14T14:56:42.271Z,24.23
2023-07-14T14:59:25.145Z,24.06
2023-07-14T15:01:52.021Z,24.16
2023-07-14T15:04:30.102Z,24.03
2023-07-14T15:06:57.026Z,23.99
2023-07-14T15:09:24.128Z,23.90
2023-07-14T15:11:54.651Z,23.62
2023-07-14T15:14:35.970Z,23.47
2023-07-14T15:17:16.176Z,23.59
2023-07-14T15:19:42.948Z,23.67
2023-07-14T15:22:21.837Z,23.61
2023-07-14T15:24:51.059Z,23.62
2023-07-14T15:27:28.672Z,23.56
2023-07-14T15:30:02.844Z,23.72
2023-07-14T15:32:29.977Z,23.75
2023-07-14T15:34:57.379Z,23.76
2023-07-14T15:37:24.091Z,23.79
2023-07-14T15:39:50.756Z,23.67
2023-07-14T15:42:17.519Z,23.58
2023-07-14T15:44:44.226Z,23.65
2023-07-14T15:47:16.303Z,23.63
2023-07-14T15:49:48.831Z,23.78
2023-07-14T15:52:19.055Z,23.85
2023-07-14T15:54:46.443Z,23.83
2023-07-14T15:57:16.189Z,23.78
2023-07-14T15:59:45.137Z,23.77
2023-07-14T16:02:16.471Z,23.74
2023-07-14T16:04:43.691Z,23.65
2023-07-14T16:07:14.881Z,23.51
2023-07-14T16:09:43.246Z,23.60
2023-07-14T16:12:19.073Z,23.60
2023-07-14T16:14:45.812Z,23.72
2023-07-14T16:17:12.535Z,23.70
2023-07-14T16:19:39.531Z,23.69
2023-07-14T16:22:07.456Z,23.60
2023-07-14T16:24:38.492Z,23.63
2023-07-14T16:27:24.381Z,23.54
2023-07-14T16:29:51.609Z,23.51
2023-07-14T16:32:18.592Z,23.51
2023-07-14T16:34:45.827Z,23.54
2023-07-14T16:37:21.919Z,23.48
2023-07-14T16:39:49.119Z,23.53
2023-07-14T16:42:19.784Z,23.58
2023-07-14T16:44:46.655Z,23.56
2023-07-14T16:47:14.419Z,23.59
2023-07-14T16:49:41.633Z,23.53
2023-07-14T16:52:27.870Z,23.48
2023-07-14T16:54:54.688Z,23.45
2023-07-14T16:57:31.131Z,23.45
2023-07-14T16:59:57.985Z,23.36
2023-07-14T17:02:26.941Z,23.36
2023-07-14T17:04:54.359Z,23.24
2023-07-14T17:07:21.839Z,23.28
2023-07-14T17:09:50.700Z,23.18
2023-07-14T17:12:17.991Z,23.19
2023-07-14T17:14:44.684Z,23.21
2023-07-14T17:17:15.181Z,23.14
2023-07-14T17:19:42.113Z,23.27
2023-07-14T17:22:12.346Z,23.25
2023-07-14T17:24:41.624Z,23.27
2023-07-14T17:27:15.928Z,23.29
2023-07-14T17:29:44.510Z,23.34
2023-07-14T17:32:11.918Z,23.30
2023-07-14T17:34:38.643Z,23.30
2023-07-14T17:37:07.640Z,23.28
2023-07-14T17:39:47.006Z,23.24
2023-07-14T17:42:20.593Z,23.12
2023-07-14T17:44:47.821Z,23.12
2023-07-14T17:47:14.656Z,23.14
2023-07-14T17:49:42.048Z,23.08
2023-07-14T17:52:18.700Z,23.08
2023-07-14T17:54:45.732Z,22.86
2023-07-14T17:57:18.316Z,22.80
2023-07-14T17:59:50.898Z,22.86
2023-07-14T18:02:37.644Z,22.80
2023-07-14T18:05:05.213Z,22.64
2023-07-14T18:07:33.442Z,22.71
2023-07-14T18:10:00.331Z,22.79
2023-07-14T18:12:29.295Z,22.72
2023-07-14T18:14:55.995Z,22.72
2023-07-14T18:17:23.251Z,22.77
2023-07-14T18:19:50.062Z,22.83
2023-07-14T18:22:27.946Z,22.78
2023-07-14T18:25:01.103Z,22.82
2023-07-14T18:27:30.701Z,22.77
2023-07-14T18:29:57.428Z,22.71
2023-07-14T18:32:24.308Z,22.63
2023-07-14T18:34:51.069Z,22.63
2023-07-14T18:37:17.811Z,22.59
2023-07-14T18:39:47.764Z,22.51
2023-07-14T18:42:19.650Z,22.44
2023-07-14T18:44:46.435Z,22.40
2023-07-14T18:47:14.634Z,22.25
2023-07-14T18:49:42.318Z,22.11
2023-07-14T18:52:16.011Z,21.96
2023-07-14T18:54:42.989Z,21.88
2023-07-14T18:57:20.598Z,21.76
2023-07-14T18:59:49.147Z,21.81
2023-07-14T19:02:27.910Z,21.73
2023-07-14T19:04:56.239Z,21.73
2023-07-14T19:07:23.866Z,21.67
2023-07-14T19:09:50.581Z,21.67
2023-07-14T19:12:26.272Z,21.54
2023-07-14T19:14:52.923Z,21.47
2023-07-14T19:17:20.644Z,21.51
2023-07-14T19:19:47.582Z,21.44
2023-07-14T19:22:16.784Z,21.44
2023-07-14T19:24:43.455Z,21.42
2023-07-14T19:27:14.886Z,21.47
2023-07-14T19:29:41.641Z,21.41
2023-07-14T19:32:16.716Z,21.45
2023-07-14T19:34:49.026Z,21.41
2023-07-14T19:37:16.086Z,21.35
2023-07-14T19:39:42.724Z,21.27
2023-07-14T19:42:17.974Z,21.30
2023-07-14T19:44:47.995Z,21.26
2023-07-14T19:47:20.236Z,21.31
2023-07-14T19:49:47.447Z,21.38
2023-07-14T19:52:15.164Z,21.40
2023-07-14T19:54:42.227Z,21.37
2023-07-14T19:57:16.724Z,21.45
2023-07-14T19:59:43.437Z,21.46
2023-07-14T20:02:27.063Z,21.55
2023-07-14T20:04:55.665Z,21.55
2023-07-14T20:07:22.824Z,21.47
2023-07-14T20:09:49.442Z,21.51
2023-07-14T20:12:18.512Z,21.33
2023-07-14T20:14:45.326Z,21.40
2023-07-14T20:17:13.393Z,21.40
2023-07-14T20:19:40.156Z,21.39
2023-07-14T20:22:19.349Z,21.34
2023-07-14T20:24:46.119Z,21.27
2023-07-14T20:27:19.620Z,21.33
2023-07-14T20:29:46.970Z,21.26
2023-07-14T20:32:15.099Z,21.39
2023-07-14T20:34:43.341Z,21.23
2023-07-14T20:37:17.573Z,21.27
2023-07-14T20:39:44.559Z,21.25
2023-07-14T20:42:16.404Z,21.32
2023-07-14T20:44:46.494Z,21.28
2023-07-14T20:47:17.183Z,21.27
2023-07-14T20:49:45.482Z,21.31
2023-07-14T20:52:23.144Z,21.30
2023-07-14T20:54:53.670Z,21.29
2023-07-14T20:57:20.859Z,21.19
2023-07-14T20:59:48.496Z,21.22
2023-07-14T21:02:25.154Z,21.17
2023-07-14T21:04:52.567Z,21.24
2023-07-14T21:07:20.478Z,21.17
2023-07-14T21:09:47.347Z,21.14
2023-07-14T21:12:26.954Z,21.17
2023-07-14T21:14:54.360Z,21.11
2023-07-14T21:17:24.751Z,21.06
2023-07-14T21:19:52.016Z,21.05
2023-07-14T21:22:21.475Z,21.14
2023-07-14T21:24:48.247Z,21.09
2023-07-14T21:27:18.084Z,21.13
2023-07-14T21:29:45.089Z,21.01
2023-07-14T21:32:27.992Z,21.05
2023-07-14T21:34:56.661Z,21.03
2023-07-14T21:37:24.373Z,21.03
2023-07-14T21:39:51.774Z,21.13
2023-07-14T21:42:19.196Z,21.04
2023-07-14T21:44:47.525Z,21.04
2023-07-14T21:47:15.551Z,21.04
2023-07-14T21:49:42.227Z,21.07
2023-07-14T21:52:14.007Z,21.04
2023-07-14T21:54:40.999Z,21.00
2023-07-14T21:57:17.431Z,20.91
2023-07-14T21:59:44.662Z,20.98
2023-07-14T22:02:16.797Z,20.97
2023-07-14T22:04:43.679Z,20.94
2023-07-14T22:07:12.446Z,20.94
2023-07-14T22:09:39.197Z,20.94
2023-07-14T22:12:16.872Z,20.86
2023-07-14T22:14:43.863Z,20.89
2023-07-14T22:17:14.019Z,20.85
2023-07-14T22:19:41.666Z,20.86
2023-07-14T22:22:10.144Z,20.90
2023-07-14T22:24:37.022Z,20.92
2023-07-14T22:27:03.947Z,20.82
2023-07-14T22:29:30.680Z,20.89
2023-07-14T22:31:58.357Z,20.84
2023-07-14T22:34:25.056Z,20.85
2023-07-14T22:36:51.801Z,20.85
2023-07-14T22:39:20.308Z,20.94
2023-07-14T22:41:49.708Z,20.92
2023-07-14T22:44:18.499Z,20.87
2023-07-14T22:46:46.877Z,20.90
2023-07-14T22:49:14.391Z,20.96
2023-07-14T22:51:45.510Z,20.82
2023-07-14T22:54:17.315Z,20.83
2023-07-14T22:56:44.181Z,20.81
2023-07-14T22:59:10.940Z,20.71
2023-07-14T23:01:37.699Z,20.71
2023-07-14T23:04:06.540Z,20.71
2023-07-14T23:06:34.008Z,20.68
2023-07-14T23:09:00.858Z,20.56
2023-07-14T23:11:32.499Z,20.49
2023-07-14T23:14:00.110Z,20.49
2023-07-14T23:16:27.033Z,20.49
2023-07-14T23:18:53.990Z,20.44
2023-07-14T23:21:30.413Z,20.53
2023-07-14T23:23:59.813Z,20.58
2023-07-14T23:26:29.710Z,20.48
2023-07-14T23:28:56.914Z,20.48
2023-07-14T23:31:33.359Z,20.45
2023-07-14T23:34:00.488Z,20.46
2023-07-14T23:36:27.711Z,20.41
2023-07-14T23:38:54.621Z,20.40
2023-07-14T23:41:25.540Z,20.40
2023-07-14T23:43:54.160Z,20.44
2023-07-14T23:46:25.498Z,20.39
2023-07-14T23:48:53.486Z,20.39
2023-07-14T23:51:34.456Z,20.38
2023-07-14T23:54:01.707Z,20.48
2023-07-14T23:56:29.468Z,20.41
2023-07-14T23:58:56.568Z,20.37
